sensor_id;sensor_type;location;lat;lon;timestamp;temperature;humidity
13093;DHT22;6612;49.568;11.000;2022-11-02T00:00:24;13.30;68.40
13093;DHT22;6612;49.568;11.000;2022-11-02T00:02:52;13.40;68.60
13093;DHT22;6612;49.568;11.000;2022-11-02T00:05:19;13.40;68.60
13093;DHT22;6612;49.568;11.000;2022-11-02T00:07:51;13.50;68.70
13093;DHT22;6612;49.568;11.000;2022-11-02T00:10:18;13.50;69.50
13093;DHT22;6612;49.568;11.000;2022-11-02T00:12:46;13.60;68.80
13093;DHT22;6612;49.568;11.000;2022-11-02T00:15:13;13.60;68.80
13093;DHT22;6612;49.568;11.000;2022-11-02T00:17:41;13.70;68.80
13093;DHT22;6612;49.568;11.000;2022-11-02T00:20:10;13.70;68.80
13093;DHT22;6612;49.568;11.000;2022-11-02T00:22:38;13.80;68.80
13093;DHT22;6612;49.568;11.000;2022-11-02T00:25:10;13.80;68.70
13093;DHT22;6612;49.568;11.000;2022-11-02T00:27:39;13.80;68.60
13093;DHT22;6612;49.568;11.000;2022-11-02T00:30:07;13.90;68.60
13093;DHT22;6612;49.568;11.000;2022-11-02T00:32:35;13.90;68.50
13093;DHT22;6612;49.568;11.000;2022-11-02T00:35:02;14.00;68.50
13093;DHT22;6612;49.568;11.000;2022-11-02T00:37:29;14.00;68.40
13093;DHT22;6612;49.568;11.000;2022-11-02T00:39:56;14.00;68.40
13093;DHT22;6612;49.568;11.000;2022-11-02T00:42:25;14.00;68.40
13093;DHT22;6612;49.568;11.000;2022-11-02T00:44:52;14.00;68.40
13093;DHT22;6612;49.568;11.000;2022-11-02T00:47:19;14.10;68.50
13093;DHT22;6612;49.568;11.000;2022-11-02T00:49:46;14.10;68.40
13093;DHT22;6612;49.568;11.000;2022-11-02T00:52:13;14.10;68.40
13093;DHT22;6612;49.568;11.000;2022-11-02T00:54:40;14.20;68.50
13093;DHT22;6612;49.568;11.000;2022-11-02T00:57:07;14.10;68.30
13093;DHT22;6612;49.568;11.000;2022-11-02T00:59:35;14.20;68.40
13093;DHT22;6612;49.568;11.000;2022-11-02T01:02:02;14.20;68.40
13093;DHT22;6612;49.568;11.000;2022-11-02T01:04:29;14.20;68.40
13093;DHT22;6612;49.568;11.000;2022-11-02T01:06:56;14.20;68.50
13093;DHT22;6612;49.568;11.000;2022-11-02T01:09:23;14.20;68.40
13093;DHT22;6612;49.568;11.000;2022-11-02T01:11:50;14.20;68.50
13093;DHT22;6612;49.568;11.000;2022-11-02T01:14:19;14.20;68.50
13093;DHT22;6612;49.568;11.000;2022-11-02T01:16:47;14.30;68.50
13093;DHT22;6612;49.568;11.000;2022-11-02T01:19:14;14.30;68.60
13093;DHT22;6612;49.568;11.000;2022-11-02T01:21:41;14.30;68.50
13093;DHT22;6612;49.568;11.000;2022-11-02T01:24:09;14.30;68.60
13093;DHT22;6612;49.568;11.000;2022-11-02T01:26:35;14.30;68.60
13093;DHT22;6612;49.568;11.000;2022-11-02T01:29:02;14.40;68.70
13093;DHT22;6612;49.568;11.000;2022-11-02T01:31:29;14.30;68.50
13093;DHT22;6612;49.568;11.000;2022-11-02T01:33:58;14.30;68.50
13093;DHT22;6612;49.568;11.000;2022-11-02T01:36:25;14.30;68.50
13093;DHT22;6612;49.568;11.000;2022-11-02T01:38:52;14.30;68.50
13093;DHT22;6612;49.568;11.000;2022-11-02T01:41:20;14.30;68.50
13093;DHT22;6612;49.568;11.000;2022-11-02T01:43:50;14.40;68.60
13093;DHT22;6612;49.568;11.000;2022-11-02T01:46:20;14.40;68.60
13093;DHT22;6612;49.568;11.000;2022-11-02T01:48:49;14.40;68.60
13093;DHT22;6612;49.568;11.000;2022-11-02T01:51:22;14.40;68.50
13093;DHT22;6612;49.568;11.000;2022-11-02T01:53:52;14.40;68.50
13093;DHT22;6612;49.568;11.000;2022-11-02T01:56:22;14.40;68.50
13093;DHT22;6612;49.568;11.000;2022-11-02T01:58:55;14.40;69.20
13093;DHT22;6612;49.568;11.000;2022-11-02T02:01:23;14.40;68.40
13093;DHT22;6612;49.568;11.000;2022-11-02T02:03:52;14.40;68.40
13093;DHT22;6612;49.568;11.000;2022-11-02T02:06:20;14.40;68.30
13093;DHT22;6612;49.568;11.000;2022-11-02T02:08:50;14.40;68.30
13093;DHT22;6612;49.568;11.000;2022-11-02T02:11:27;14.30;68.00
13093;DHT22;6612;49.568;11.000;2022-11-02T02:13:56;14.30;67.80
13093;DHT22;6612;49.568;11.000;2022-11-02T02:19:29;14.30;67.60
13093;DHT22;6612;49.568;11.000;2022-11-02T02:24:53;14.20;67.40
13093;DHT22;6612;49.568;11.000;2022-11-02T02:27:28;14.10;67.00
13093;DHT22;6612;49.568;11.000;2022-11-02T02:30:04;14.10;66.90
13093;DHT22;6612;49.568;11.000;2022-11-02T02:32:45;14.00;66.70
13093;DHT22;6612;49.568;11.000;2022-11-02T02:35:20;13.90;66.50
13093;DHT22;6612;49.568;11.000;2022-11-02T02:37:54;13.90;66.20
13093;DHT22;6612;49.568;11.000;2022-11-02T02:40:26;13.80;66.10
13093;DHT22;6612;49.568;11.000;2022-11-02T02:42:58;13.70;66.00
13093;DHT22;6612;49.568;11.000;2022-11-02T02:45:33;13.60;66.00
13093;DHT22;6612;49.568;11.000;2022-11-02T02:48:06;13.50;66.00
13093;DHT22;6612;49.568;11.000;2022-11-02T02:50:41;13.50;66.10
13093;DHT22;6612;49.568;11.000;2022-11-02T02:53:11;13.40;66.20
13093;DHT22;6612;49.568;11.000;2022-11-02T02:55:43;13.30;66.10
13093;DHT22;6612;49.568;11.000;2022-11-02T02:58:14;13.30;66.20
13093;DHT22;6612;49.568;11.000;2022-11-02T03:00:45;13.20;66.20
13093;DHT22;6612;49.568;11.000;2022-11-02T03:03:16;13.10;66.20
13093;DHT22;6612;49.568;11.000;2022-11-02T03:05:54;13.10;66.30
13093;DHT22;6612;49.568;11.000;2022-11-02T03:08:25;13.00;66.40
13093;DHT22;6612;49.568;11.000;2022-11-02T03:11:01;12.90;66.10
13093;DHT22;6612;49.568;11.000;2022-11-02T03:13:39;12.90;66.30
13093;DHT22;6612;49.568;11.000;2022-11-02T03:16:19;12.80;66.30
13093;DHT22;6612;49.568;11.000;2022-11-02T03:18:56;12.80;66.40
13093;DHT22;6612;49.568;11.000;2022-11-02T03:21:31;12.70;66.20
13093;DHT22;6612;49.568;11.000;2022-11-02T03:24:05;12.70;66.40
13093;DHT22;6612;49.568;11.000;2022-11-02T03:26:40;12.60;66.30
13093;DHT22;6612;49.568;11.000;2022-11-02T03:29:12;12.60;66.30
13093;DHT22;6612;49.568;11.000;2022-11-02T03:31:48;12.50;66.30
13093;DHT22;6612;49.568;11.000;2022-11-02T03:34:24;12.50;66.50
13093;DHT22;6612;49.568;11.000;2022-11-02T03:36:57;12.50;66.50
13093;DHT22;6612;49.568;11.000;2022-11-02T03:39:30;12.40;66.60
13093;DHT22;6612;49.568;11.000;2022-11-02T03:42:01;12.40;66.60
13093;DHT22;6612;49.568;11.000;2022-11-02T03:44:32;12.30;66.60
13093;DHT22;6612;49.568;11.000;2022-11-02T03:47:03;12.30;66.60
13093;DHT22;6612;49.568;11.000;2022-11-02T03:49:32;12.30;66.80
13093;DHT22;6612;49.568;11.000;2022-11-02T03:52:04;12.20;66.80
13093;DHT22;6612;49.568;11.000;2022-11-02T03:54:40;12.20;67.10
13093;DHT22;6612;49.568;11.000;2022-11-02T03:57:15;12.20;67.20
13093;DHT22;6612;49.568;11.000;2022-11-02T03:59:45;12.20;67.30
13093;DHT22;6612;49.568;11.000;2022-11-02T04:02:15;12.20;67.20
13093;DHT22;6612;49.568;11.000;2022-11-02T04:04:49;12.10;67.40
13093;DHT22;6612;49.568;11.000;2022-11-02T04:07:21;12.10;67.60
13093;DHT22;6612;49.568;11.000;2022-11-02T04:09:51;12.10;67.60
13093;DHT22;6612;49.568;11.000;2022-11-02T04:12:19;12.10;67.60
13093;DHT22;6612;49.568;11.000;2022-11-02T04:15:05;12.10;67.70
13093;DHT22;6612;49.568;11.000;2022-11-02T04:17:35;12.10;67.80
13093;DHT22;6612;49.568;11.000;2022-11-02T04:20:20;12.10;67.80
13093;DHT22;6612;49.568;11.000;2022-11-02T04:22:47;12.10;67.60
13093;DHT22;6612;49.568;11.000;2022-11-02T04:25:33;12.00;67.50
13093;DHT22;6612;49.568;11.000;2022-11-02T04:28:07;12.00;67.50
13093;DHT22;6612;49.568;11.000;2022-11-02T04:30:35;12.00;67.80
13093;DHT22;6612;49.568;11.000;2022-11-02T04:33:04;12.00;67.70
13093;DHT22;6612;49.568;11.000;2022-11-02T04:35:49;11.90;67.60
13093;DHT22;6612;49.568;11.000;2022-11-02T04:38:17;12.00;67.50
13093;DHT22;6612;49.568;11.000;2022-11-02T04:41:02;11.90;67.50
13093;DHT22;6612;49.568;11.000;2022-11-02T04:43:47;11.90;67.50
13093;DHT22;6612;49.568;11.000;2022-11-02T04:46:15;11.90;67.50
13093;DHT22;6612;49.568;11.000;2022-11-02T04:48:45;11.90;67.60
13093;DHT22;6612;49.568;11.000;2022-11-02T04:51:13;11.80;67.70
13093;DHT22;6612;49.568;11.000;2022-11-02T04:53:42;11.80;67.90
13093;DHT22;6612;49.568;11.000;2022-11-02T04:56:10;11.80;68.00
13093;DHT22;6612;49.568;11.000;2022-11-02T04:58:38;11.80;68.10
13093;DHT22;6612;49.568;11.000;2022-11-02T05:01:08;11.80;68.30
13093;DHT22;6612;49.568;11.000;2022-11-02T05:03:36;11.80;68.40
13093;DHT22;6612;49.568;11.000;2022-11-02T05:06:06;11.80;68.60
13093;DHT22;6612;49.568;11.000;2022-11-02T05:08:35;11.80;68.70
13093;DHT22;6612;49.568;11.000;2022-11-02T05:11:03;11.80;68.80
13093;DHT22;6612;49.568;11.000;2022-11-02T05:13:32;11.80;68.70
13093;DHT22;6612;49.568;11.000;2022-11-02T05:16:00;11.90;68.80
13093;DHT22;6612;49.568;11.000;2022-11-02T05:18:29;11.80;68.60
13093;DHT22;6612;49.568;11.000;2022-11-02T05:20:58;11.90;68.60
13093;DHT22;6612;49.568;11.000;2022-11-02T05:23:28;11.90;68.60
13093;DHT22;6612;49.568;11.000;2022-11-02T05:25:57;11.80;68.60
13093;DHT22;6612;49.568;11.000;2022-11-02T05:28:26;11.80;68.60
13093;DHT22;6612;49.568;11.000;2022-11-02T05:30:56;11.80;68.70
13093;DHT22;6612;49.568;11.000;2022-11-02T05:33:24;11.80;68.70
13093;DHT22;6612;49.568;11.000;2022-11-02T05:35:55;11.80;68.80
13093;DHT22;6612;49.568;11.000;2022-11-02T05:38:23;11.80;68.90
13093;DHT22;6612;49.568;11.000;2022-11-02T05:40:53;11.80;68.90
13093;DHT22;6612;49.568;11.000;2022-11-02T05:43:22;11.90;69.00
13093;DHT22;6612;49.568;11.000;2022-11-02T05:45:52;11.90;68.90
13093;DHT22;6612;49.568;11.000;2022-11-02T05:48:20;11.80;68.70
13093;DHT22;6612;49.568;11.000;2022-11-02T05:50:48;11.80;68.60
13093;DHT22;6612;49.568;11.000;2022-11-02T05:53:16;11.80;68.50
13093;DHT22;6612;49.568;11.000;2022-11-02T05:55:45;11.80;68.50
13093;DHT22;6612;49.568;11.000;2022-11-02T05:58:15;11.70;68.40
13093;DHT22;6612;49.568;11.000;2022-11-02T06:00:43;11.80;68.70
13093;DHT22;6612;49.568;11.000;2022-11-02T06:03:11;11.70;68.50
13093;DHT22;6612;49.568;11.000;2022-11-02T06:05:39;11.70;68.40
13093;DHT22;6612;49.568;11.000;2022-11-02T06:08:07;11.70;68.50
13093;DHT22;6612;49.568;11.000;2022-11-02T06:10:35;11.70;68.50
13093;DHT22;6612;49.568;11.000;2022-11-02T06:13:03;11.60;68.40
13093;DHT22;6612;49.568;11.000;2022-11-02T06:15:33;11.60;69.30
13093;DHT22;6612;49.568;11.000;2022-11-02T06:18:01;11.60;68.70
13093;DHT22;6612;49.568;11.000;2022-11-02T06:20:29;11.60;68.80
13093;DHT22;6612;49.568;11.000;2022-11-02T06:22:57;11.60;68.80
13093;DHT22;6612;49.568;11.000;2022-11-02T06:25:25;11.60;69.00
13093;DHT22;6612;49.568;11.000;2022-11-02T06:27:55;11.60;69.00
13093;DHT22;6612;49.568;11.000;2022-11-02T06:30:23;11.60;69.30
13093;DHT22;6612;49.568;11.000;2022-11-02T06:32:53;11.60;69.30
13093;DHT22;6612;49.568;11.000;2022-11-02T06:35:22;11.60;69.50
13093;DHT22;6612;49.568;11.000;2022-11-02T06:37:50;11.60;69.70
13093;DHT22;6612;49.568;11.000;2022-11-02T06:40:18;11.70;69.80
13093;DHT22;6612;49.568;11.000;2022-11-02T06:42:47;11.70;70.00
13093;DHT22;6612;49.568;11.000;2022-11-02T06:45:14;11.70;70.40
13093;DHT22;6612;49.568;11.000;2022-11-02T06:47:42;11.80;70.40
13093;DHT22;6612;49.568;11.000;2022-11-02T06:50:12;11.80;70.70
13093;DHT22;6612;49.568;11.000;2022-11-02T06:52:42;11.90;71.20
13093;DHT22;6612;49.568;11.000;2022-11-02T06:55:11;12.00;71.40
13093;DHT22;6612;49.568;11.000;2022-11-02T06:57:40;12.00;71.50
13093;DHT22;6612;49.568;11.000;2022-11-02T07:00:10;12.10;71.60
13093;DHT22;6612;49.568;11.000;2022-11-02T07:02:38;12.20;71.90
13093;DHT22;6612;49.568;11.000;2022-11-02T07:05:07;12.20;71.90
13093;DHT22;6612;49.568;11.000;2022-11-02T07:07:37;12.30;72.20
13093;DHT22;6612;49.568;11.000;2022-11-02T07:10:06;12.40;72.50
13093;DHT22;6612;49.568;11.000;2022-11-02T07:12:35;12.50;72.70
13093;DHT22;6612;49.568;11.000;2022-11-02T07:15:04;12.70;72.90
13093;DHT22;6612;49.568;11.000;2022-11-02T07:17:32;12.80;72.90
13093;DHT22;6612;49.568;11.000;2022-11-02T07:20:01;12.90;72.60
13093;DHT22;6612;49.568;11.000;2022-11-02T07:22:30;13.00;72.30
13093;DHT22;6612;49.568;11.000;2022-11-02T07:24:59;13.10;72.30
13093;DHT22;6612;49.568;11.000;2022-11-02T07:27:27;13.20;72.30
13093;DHT22;6612;49.568;11.000;2022-11-02T07:29:55;13.30;72.30
13093;DHT22;6612;49.568;11.000;2022-11-02T07:32:23;13.30;72.10
13093;DHT22;6612;49.568;11.000;2022-11-02T07:34:51;13.50;72.30
13093;DHT22;6612;49.568;11.000;2022-11-02T07:37:18;13.60;72.60
13093;DHT22;6612;49.568;11.000;2022-11-02T07:39:46;13.70;72.80
13093;DHT22;6612;49.568;11.000;2022-11-02T07:42:14;13.80;72.50
13093;DHT22;6612;49.568;11.000;2022-11-02T07:44:41;13.90;71.80
13093;DHT22;6612;49.568;11.000;2022-11-02T07:47:08;14.00;71.90
13093;DHT22;6612;49.568;11.000;2022-11-02T07:49:35;14.20;73.50
13093;DHT22;6612;49.568;11.000;2022-11-02T07:52:02;14.50;76.20
13093;DHT22;6612;49.568;11.000;2022-11-02T07:54:29;14.80;78.60
13093;DHT22;6612;49.568;11.000;2022-11-02T07:56:56;15.20;77.50
13093;DHT22;6612;49.568;11.000;2022-11-02T07:59:25;15.60;76.00
13093;DHT22;6612;49.568;11.000;2022-11-02T08:01:52;15.80;74.10
13093;DHT22;6612;49.568;11.000;2022-11-02T08:04:19;16.10;73.50
13093;DHT22;6612;49.568;11.000;2022-11-02T08:06:46;16.30;72.90
13093;DHT22;6612;49.568;11.000;2022-11-02T08:09:13;16.40;72.40
13093;DHT22;6612;49.568;11.000;2022-11-02T08:11:41;16.60;71.80
13093;DHT22;6612;49.568;11.000;2022-11-02T08:14:08;16.60;71.10
13093;DHT22;6612;49.568;11.000;2022-11-02T08:16:36;16.70;70.50
13093;DHT22;6612;49.568;11.000;2022-11-02T08:19:03;16.80;69.90
13093;DHT22;6612;49.568;11.000;2022-11-02T08:21:30;16.80;69.70
13093;DHT22;6612;49.568;11.000;2022-11-02T08:23:57;16.80;69.60
13093;DHT22;6612;49.568;11.000;2022-11-02T08:26:24;16.80;69.20
13093;DHT22;6612;49.568;11.000;2022-11-02T08:28:51;16.90;69.10
13093;DHT22;6612;49.568;11.000;2022-11-02T08:31:18;16.90;69.40
13093;DHT22;6612;49.568;11.000;2022-11-02T08:33:46;16.90;69.40
13093;DHT22;6612;49.568;11.000;2022-11-02T08:36:13;17.00;69.50
13093;DHT22;6612;49.568;11.000;2022-11-02T08:38:40;17.00;69.70
13093;DHT22;6612;49.568;11.000;2022-11-02T08:41:07;17.10;69.50
13093;DHT22;6612;49.568;11.000;2022-11-02T08:43:34;17.10;68.90
13093;DHT22;6612;49.568;11.000;2022-11-02T08:46:01;17.20;68.50
13093;DHT22;6612;49.568;11.000;2022-11-02T08:48:28;17.20;68.20
13093;DHT22;6612;49.568;11.000;2022-11-02T08:50:57;17.20;67.90
13093;DHT22;6612;49.568;11.000;2022-11-02T08:53:24;17.10;67.50
13093;DHT22;6612;49.568;11.000;2022-11-02T08:55:51;17.10;67.30
13093;DHT22;6612;49.568;11.000;2022-11-02T08:58:18;17.10;67.00
13093;DHT22;6612;49.568;11.000;2022-11-02T09:00:45;17.10;66.60
13093;DHT22;6612;49.568;11.000;2022-11-02T09:03:14;17.00;66.20
13093;DHT22;6612;49.568;11.000;2022-11-02T09:05:42;17.00;66.00
13093;DHT22;6612;49.568;11.000;2022-11-02T09:08:13;16.90;66.30
13093;DHT22;6612;49.568;11.000;2022-11-02T09:10:41;16.80;66.10
13093;DHT22;6612;49.568;11.000;2022-11-02T09:13:11;16.80;66.30
13093;DHT22;6612;49.568;11.000;2022-11-02T09:15:39;16.80;66.40
13093;DHT22;6612;49.568;11.000;2022-11-02T09:18:07;16.80;66.80
13093;DHT22;6612;49.568;11.000;2022-11-02T09:20:34;16.80;67.00
13093;DHT22;6612;49.568;11.000;2022-11-02T09:23:01;16.80;67.20
13093;DHT22;6612;49.568;11.000;2022-11-02T09:25:29;16.80;67.40
13093;DHT22;6612;49.568;11.000;2022-11-02T09:27:57;16.80;67.30
13093;DHT22;6612;49.568;11.000;2022-11-02T09:30:25;16.80;67.30
13093;DHT22;6612;49.568;11.000;2022-11-02T09:32:54;16.90;67.80
13093;DHT22;6612;49.568;11.000;2022-11-02T09:35:21;16.90;68.20
13093;DHT22;6612;49.568;11.000;2022-11-02T09:37:48;17.10;68.70
13093;DHT22;6612;49.568;11.000;2022-11-02T09:40:19;17.20;68.80
13093;DHT22;6612;49.568;11.000;2022-11-02T09:42:58;17.30;68.60
13093;DHT22;6612;49.568;11.000;2022-11-02T09:45:27;17.40;68.20
13093;DHT22;6612;49.568;11.000;2022-11-02T09:47:57;17.60;68.60
13093;DHT22;6612;49.568;11.000;2022-11-02T09:50:37;17.70;68.20
13093;DHT22;6612;49.568;11.000;2022-11-02T09:53:06;17.80;68.00
13093;DHT22;6612;49.568;11.000;2022-11-02T09:55:41;17.90;68.00
13093;DHT22;6612;49.568;11.000;2022-11-02T09:58:16;18.10;67.70
13093;DHT22;6612;49.568;11.000;2022-11-02T10:00:46;18.20;67.20
13093;DHT22;6612;49.568;11.000;2022-11-02T10:03:23;18.20;66.90
13093;DHT22;6612;49.568;11.000;2022-11-02T10:05:57;18.30;66.10
13093;DHT22;6612;49.568;11.000;2022-11-02T10:08:37;18.40;66.10
13093;DHT22;6612;49.568;11.000;2022-11-02T10:11:16;18.50;65.80
13093;DHT22;6612;49.568;11.000;2022-11-02T10:13:52;18.60;65.60
13093;DHT22;6612;49.568;11.000;2022-11-02T10:16:22;18.70;65.70
13093;DHT22;6612;49.568;11.000;2022-11-02T10:18:52;18.70;65.90
13093;DHT22;6612;49.568;11.000;2022-11-02T10:21:20;18.80;65.60
13093;DHT22;6612;49.568;11.000;2022-11-02T10:23:51;18.80;64.80
13093;DHT22;6612;49.568;11.000;2022-11-02T10:26:27;18.80;64.50
13093;DHT22;6612;49.568;11.000;2022-11-02T10:28:58;18.80;63.80
13093;DHT22;6612;49.568;11.000;2022-11-02T10:31:29;18.80;64.20
13093;DHT22;6612;49.568;11.000;2022-11-02T10:33:59;18.90;64.40
13093;DHT22;6612;49.568;11.000;2022-11-02T10:36:42;18.90;64.20
13093;DHT22;6612;49.568;11.000;2022-11-02T10:39:18;18.90;63.10
13093;DHT22;6612;49.568;11.000;2022-11-02T10:42:03;18.90;63.10
13093;DHT22;6612;49.568;11.000;2022-11-02T10:44:44;18.90;62.20
13093;DHT22;6612;49.568;11.000;2022-11-02T10:47:15;18.90;62.40
13093;DHT22;6612;49.568;11.000;2022-11-02T10:50:07;18.90;63.00
13093;DHT22;6612;49.568;11.000;2022-11-02T10:52:41;18.90;62.50
13093;DHT22;6612;49.568;11.000;2022-11-02T10:55:17;18.90;62.90
13093;DHT22;6612;49.568;11.000;2022-11-02T10:57:48;18.90;62.40
13093;DHT22;6612;49.568;11.000;2022-11-02T11:00:25;18.90;62.70
13093;DHT22;6612;49.568;11.000;2022-11-02T11:03:03;19.00;62.20
13093;DHT22;6612;49.568;11.000;2022-11-02T11:05:32;18.90;61.90
13093;DHT22;6612;49.568;11.000;2022-11-02T11:07:59;18.90;62.80
13093;DHT22;6612;49.568;11.000;2022-11-02T11:10:26;18.90;62.80
13093;DHT22;6612;49.568;11.000;2022-11-02T11:12:55;18.90;62.90
13093;DHT22;6612;49.568;11.000;2022-11-02T11:15:27;19.00;62.80
13093;DHT22;6612;49.568;11.000;2022-11-02T11:17:56;19.00;62.30
13093;DHT22;6612;49.568;11.000;2022-11-02T11:20:34;19.10;62.80
13093;DHT22;6612;49.568;11.000;2022-11-02T11:23:18;19.20;61.80
13093;DHT22;6612;49.568;11.000;2022-11-02T11:25:59;19.20;62.00
13093;DHT22;6612;49.568;11.000;2022-11-02T11:28:29;19.30;61.00
13093;DHT22;6612;49.568;11.000;2022-11-02T11:31:07;19.30;61.70
13093;DHT22;6612;49.568;11.000;2022-11-02T11:33:42;19.40;60.80
13093;DHT22;6612;49.568;11.000;2022-11-02T11:36:10;19.40;60.50
13093;DHT22;6612;49.568;11.000;2022-11-02T11:38:46;19.40;60.80
13093;DHT22;6612;49.568;11.000;2022-11-02T11:41:13;19.40;60.30
13093;DHT22;6612;49.568;11.000;2022-11-02T11:43:40;19.40;60.00
13093;DHT22;6612;49.568;11.000;2022-11-02T11:46:10;19.30;59.40
13093;DHT22;6612;49.568;11.000;2022-11-02T11:48:40;19.30;59.20
13093;DHT22;6612;49.568;11.000;2022-11-02T11:51:34;19.30;59.00
13093;DHT22;6612;49.568;11.000;2022-11-02T11:54:18;19.20;57.90
13093;DHT22;6612;49.568;11.000;2022-11-02T11:56:47;19.20;57.80
13093;DHT22;6612;49.568;11.000;2022-11-02T11:59:19;19.10;58.50
13093;DHT22;6612;49.568;11.000;2022-11-02T12:01:49;19.00;58.10
13093;DHT22;6612;49.568;11.000;2022-11-02T12:04:30;19.00;58.30
13093;DHT22;6612;49.568;11.000;2022-11-02T12:07:28;18.90;57.50
13093;DHT22;6612;49.568;11.000;2022-11-02T12:10:04;18.80;57.10
13093;DHT22;6612;49.568;11.000;2022-11-02T12:12:43;18.80;57.60
13093;DHT22;6612;49.568;11.000;2022-11-02T12:15:21;18.70;57.30
13093;DHT22;6612;49.568;11.000;2022-11-02T12:18:01;18.60;57.60
13093;DHT22;6612;49.568;11.000;2022-11-02T12:20:44;18.60;57.30
13093;DHT22;6612;49.568;11.000;2022-11-02T12:26:17;18.50;57.70
13093;DHT22;6612;49.568;11.000;2022-11-02T12:28:54;18.60;58.10
13093;DHT22;6612;49.568;11.000;2022-11-02T12:31:32;18.60;58.20
13093;DHT22;6612;49.568;11.000;2022-11-02T12:34:28;18.70;57.80
13093;DHT22;6612;49.568;11.000;2022-11-02T12:37:08;18.80;57.50
13093;DHT22;6612;49.568;11.000;2022-11-02T12:39:51;18.80;57.80
13093;DHT22;6612;49.568;11.000;2022-11-02T12:42:27;18.90;57.30
13093;DHT22;6612;49.568;11.000;2022-11-02T12:45:25;18.90;57.50
13093;DHT22;6612;49.568;11.000;2022-11-02T12:47:58;19.00;56.10
13093;DHT22;6612;49.568;11.000;2022-11-02T12:50:36;19.00;57.20
13093;DHT22;6612;49.568;11.000;2022-11-02T12:53:32;19.00;55.90
13093;DHT22;6612;49.568;11.000;2022-11-02T12:56:02;19.00;55.60
13093;DHT22;6612;49.568;11.000;2022-11-02T12:58:34;18.90;55.90
13093;DHT22;6612;49.568;11.000;2022-11-02T13:01:18;18.90;55.40
13093;DHT22;6612;49.568;11.000;2022-11-02T13:03:50;18.80;55.00
13093;DHT22;6612;49.568;11.000;2022-11-02T13:06:23;18.80;54.90
13093;DHT22;6612;49.568;11.000;2022-11-02T13:08:53;18.70;54.40
13093;DHT22;6612;49.568;11.000;2022-11-02T13:11:27;18.60;54.40
13093;DHT22;6612;49.568;11.000;2022-11-02T13:13:56;18.50;54.20
13093;DHT22;6612;49.568;11.000;2022-11-02T13:16:32;18.40;54.40
13093;DHT22;6612;49.568;11.000;2022-11-02T13:19:02;18.30;54.00
13093;DHT22;6612;49.568;11.000;2022-11-02T13:21:34;18.20;54.50
13093;DHT22;6612;49.568;11.000;2022-11-02T13:24:03;18.20;54.10
13093;DHT22;6612;49.568;11.000;2022-11-02T13:26:34;18.10;54.30
13093;DHT22;6612;49.568;11.000;2022-11-02T13:29:06;18.10;54.30
13093;DHT22;6612;49.568;11.000;2022-11-02T13:31:40;18.00;53.90
13093;DHT22;6612;49.568;11.000;2022-11-02T13:34:11;18.00;54.00
13093;DHT22;6612;49.568;11.000;2022-11-02T13:36:41;17.90;53.90
13093;DHT22;6612;49.568;11.000;2022-11-02T13:39:15;17.90;54.00
13093;DHT22;6612;49.568;11.000;2022-11-02T13:42:07;17.80;53.50
13093;DHT22;6612;49.568;11.000;2022-11-02T13:45:01;17.80;53.10
13093;DHT22;6612;49.568;11.000;2022-11-02T13:47:53;17.70;53.10
13093;DHT22;6612;49.568;11.000;2022-11-02T13:50:24;17.70;53.10
13093;DHT22;6612;49.568;11.000;2022-11-02T13:52:56;17.60;53.80
13093;DHT22;6612;49.568;11.000;2022-11-02T13:55:32;17.50;53.50
13093;DHT22;6612;49.568;11.000;2022-11-02T13:58:04;17.50;53.80
13093;DHT22;6612;49.568;11.000;2022-11-02T14:00:39;17.40;53.90
13093;DHT22;6612;49.568;11.000;2022-11-02T14:03:13;17.40;53.60
13093;DHT22;6612;49.568;11.000;2022-11-02T14:05:45;17.40;53.90
13093;DHT22;6612;49.568;11.000;2022-11-02T14:08:21;17.30;53.90
13093;DHT22;6612;49.568;11.000;2022-11-02T14:11:32;17.30;53.60
13093;DHT22;6612;49.568;11.000;2022-11-02T14:14:18;17.20;53.00
13093;DHT22;6612;49.568;11.000;2022-11-02T14:16:57;17.20;53.40
13093;DHT22;6612;49.568;11.000;2022-11-02T14:19:29;17.20;53.60
13093;DHT22;6612;49.568;11.000;2022-11-02T14:22:11;17.10;53.80
13093;DHT22;6612;49.568;11.000;2022-11-02T14:24:54;17.10;53.50
13093;DHT22;6612;49.568;11.000;2022-11-02T14:27:28;17.00;53.30
13093;DHT22;6612;49.568;11.000;2022-11-02T14:29:56;17.00;53.60
13093;DHT22;6612;49.568;11.000;2022-11-02T14:32:49;17.00;54.10
13093;DHT22;6612;49.568;11.000;2022-11-02T14:35:30;16.90;53.20
13093;DHT22;6612;49.568;11.000;2022-11-02T14:41:17;16.90;53.20
13093;DHT22;6612;49.568;11.000;2022-11-02T14:44:02;16.80;53.40
13093;DHT22;6612;49.568;11.000;2022-11-02T14:46:51;16.80;53.50
13093;DHT22;6612;49.568;11.000;2022-11-02T14:49:23;16.70;53.20
13093;DHT22;6612;49.568;11.000;2022-11-02T14:52:01;16.70;53.80
13093;DHT22;6612;49.568;11.000;2022-11-02T14:54:29;16.60;53.40
13093;DHT22;6612;49.568;11.000;2022-11-02T14:57:03;16.60;53.90
13093;DHT22;6612;49.568;11.000;2022-11-02T14:59:33;16.50;53.60
13093;DHT22;6612;49.568;11.000;2022-11-02T15:02:03;16.50;54.00
13093;DHT22;6612;49.568;11.000;2022-11-02T15:04:32;16.40;53.90
13093;DHT22;6612;49.568;11.000;2022-11-02T15:07:02;16.40;54.00
13093;DHT22;6612;49.568;11.000;2022-11-02T15:09:53;16.30;54.00
13093;DHT22;6612;49.568;11.000;2022-11-02T15:12:38;16.30;53.40
13093;DHT22;6612;49.568;11.000;2022-11-02T15:15:36;16.30;53.50
13093;DHT22;6612;49.568;11.000;2022-11-02T15:18:30;16.20;53.40
13093;DHT22;6612;49.568;11.000;2022-11-02T15:21:21;16.10;53.40
13093;DHT22;6612;49.568;11.000;2022-11-02T15:23:54;16.10;53.30
13093;DHT22;6612;49.568;11.000;2022-11-02T15:26:25;16.00;53.70
13093;DHT22;6612;49.568;11.000;2022-11-02T15:28:57;15.90;53.80
13093;DHT22;6612;49.568;11.000;2022-11-02T15:31:26;15.90;53.80
13093;DHT22;6612;49.568;11.000;2022-11-02T15:33:55;15.80;53.90
13093;DHT22;6612;49.568;11.000;2022-11-02T15:36:27;15.70;53.80
13093;DHT22;6612;49.568;11.000;2022-11-02T15:39:00;15.70;53.80
13093;DHT22;6612;49.568;11.000;2022-11-02T15:41:37;15.60;53.90
13093;DHT22;6612;49.568;11.000;2022-11-02T15:44:35;15.60;54.60
13093;DHT22;6612;49.568;11.000;2022-11-02T15:47:13;15.50;54.10
13093;DHT22;6612;49.568;11.000;2022-11-02T15:53:13;15.30;53.90
13093;DHT22;6612;49.568;11.000;2022-11-02T15:55:52;15.30;53.90
13093;DHT22;6612;49.568;11.000;2022-11-02T15:58:31;15.20;54.00
13093;DHT22;6612;49.568;11.000;2022-11-02T16:01:19;15.10;54.10
13093;DHT22;6612;49.568;11.000;2022-11-02T16:03:48;15.00;54.20
13093;DHT22;6612;49.568;11.000;2022-11-02T16:06:22;14.90;54.40
13093;DHT22;6612;49.568;11.000;2022-11-02T16:08:50;14.80;54.40
13093;DHT22;6612;49.568;11.000;2022-11-02T16:11:18;14.80;54.60
13093;DHT22;6612;49.568;11.000;2022-11-02T16:13:46;14.70;54.60
13093;DHT22;6612;49.568;11.000;2022-11-02T16:16:14;14.60;54.70